createdAt,value
2023-05-23T00:00:14.163Z,95994.53
2023-05-23T00:03:08.177Z,96002.50
2023-05-23T00:05:35.227Z,95997.19
2023-05-23T00:08:02.202Z,95994.53
2023-05-23T00:10:28.897Z,96003.50
2023-05-23T00:12:55.538Z,96000.13
2023-05-23T00:15:22.510Z,95995.50
2023-05-23T00:17:49.177Z,96002.50
2023-05-23T00:20:16.876Z,96001.78
2023-05-23T00:22:43.465Z,96002.63
2023-05-23T00:25:10.347Z,95985.44
2023-05-23T00:27:37.055Z,95992.84
2023-05-23T00:30:04.778Z,95999.13
2023-05-23T00:32:31.451Z,95997.44
2023-05-23T00:34:58.131Z,96000.13
2023-05-23T00:37:24.886Z,96000.13
2023-05-23T00:39:51.546Z,96010.78
2023-05-23T00:42:18.157Z,96008.94
2023-05-23T00:44:44.794Z,96012.56
2023-05-23T00:47:13.876Z,96007.22
2023-05-23T00:49:40.724Z,96011.59
2023-05-23T00:52:07.525Z,96010.13
2023-05-23T00:54:34.709Z,96006.41
2023-05-23T00:57:01.357Z,96011.72
2023-05-23T00:59:28.170Z,96004.72
2023-05-23T01:01:56.361Z,96005.56
2023-05-23T01:04:26.721Z,96008.22
2023-05-23T01:06:55.380Z,96009.91
2023-05-23T01:09:23.765Z,96005.44
2023-05-23T01:12:09.217Z,96010.88
2023-05-23T01:14:38.949Z,96009.06
2023-05-23T01:17:12.533Z,96004.72
2023-05-23T01:19:56.745Z,96014.16
2023-05-23T01:22:48.619Z,96015.13
2023-05-23T01:25:31.453Z,96021.44
2023-05-23T01:28:01.302Z,96017.06
2023-05-23T01:30:32.204Z,96014.38
2023-05-23T01:32:59.362Z,96017.16
2023-05-23T01:35:27.358Z,96012.19
2023-05-23T01:37:55.457Z,96025.16
2023-05-23T01:40:23.430Z,96021.66
2023-05-23T01:42:50.505Z,96021.66
2023-05-23T01:45:18.312Z,96029.13
2023-05-23T01:47:46.559Z,96031.44
2023-05-23T01:50:13.276Z,96028.69
2023-05-23T01:52:40.062Z,96026.97
2023-05-23T01:55:10.011Z,96036.75
2023-05-23T01:57:38.237Z,96023.78
2023-05-23T02:00:06.829Z,96033.38
2023-05-23T02:02:39.914Z,96037.72
2023-05-23T02:05:07.035Z,96048.19
2023-05-23T02:07:33.668Z,96036.69
2023-05-23T02:10:00.462Z,96038.47
2023-05-23T02:12:28.534Z,96034.09
2023-05-23T02:14:56.501Z,96034.09
2023-05-23T02:17:24.319Z,96034.09
2023-05-23T02:19:51.120Z,96034.09
2023-05-23T02:22:18.078Z,96031.56
2023-05-23T02:24:44.757Z,96026.22
2023-05-23T02:27:13.149Z,96020.91
2023-05-23T02:29:39.838Z,96027.22
2023-05-23T02:32:06.732Z,96028.03
2023-05-23T02:34:33.431Z,96031.66
2023-05-23T02:37:00.170Z,96041.38
2023-05-23T02:39:27.522Z,96044.03
2023-05-23T02:41:55.044Z,96044.88
2023-05-23T02:44:21.819Z,96036.53
2023-05-23T02:46:48.471Z,96048.53
2023-05-23T02:49:15.176Z,96059.19
2023-05-23T02:51:41.828Z,96044.97
2023-05-23T02:54:08.576Z,96049.47
2023-05-23T02:56:38.498Z,96060.13
2023-05-23T02:59:05.822Z,96056.00
2023-05-23T03:01:32.466Z,96058.41
2023-05-23T03:03:59.219Z,96061.94
2023-05-23T03:06:27.578Z,96064.63
2023-05-23T03:08:54.320Z,96065.47
2023-05-23T03:11:22.631Z,96074.28
2023-05-23T03:13:49.509Z,96057.47
2023-05-23T03:16:16.177Z,96062.78
2023-05-23T03:18:42.892Z,96057.47
2023-05-23T03:21:09.789Z,96061.94
2023-05-23T03:23:36.799Z,96065.47
2023-05-23T03:26:03.970Z,96059.28
2023-05-23T03:28:33.722Z,96054.19
2023-05-23T03:31:00.343Z,96054.91
2023-05-23T03:33:26.934Z,96058.56
2023-05-23T03:35:53.621Z,96054.19
2023-05-23T03:38:20.722Z,96056.84
2023-05-23T03:40:47.327Z,96056.00
2023-05-23T03:43:15.286Z,96060.34
2023-05-23T03:45:43.372Z,96058.69
2023-05-23T03:48:13.572Z,96057.09
2023-05-23T03:50:41.830Z,96062.28
2023-05-23T03:53:08.769Z,96054.56
2023-05-23T03:55:35.984Z,96054.31
2023-05-23T03:58:02.755Z,96063.16
2023-05-23T04:00:29.400Z,96070.28
2023-05-23T04:02:58.791Z,96064.97
2023-05-23T04:05:25.758Z,96066.78
2023-05-23T04:07:53.830Z,96062.28
2023-05-23T04:10:20.614Z,96058.91
2023-05-23T04:12:47.941Z,96066.88
2023-05-23T04:15:17.867Z,96066.78
2023-05-23T04:17:52.772Z,96057.56
2023-05-23T04:20:19.720Z,96071.25
2023-05-23T04:22:46.341Z,96074.78
2023-05-23T04:25:13.961Z,96078.88
2023-05-23T04:27:48.252Z,96083.16
2023-05-23T04:30:17.832Z,96090.06
2023-05-23T04:32:44.787Z,96084.84
2023-05-23T04:35:14.318Z,96085.47
2023-05-23T04:37:42.547Z,96089.09
2023-05-23T04:40:09.815Z,96088.25
2023-05-23T04:42:56.870Z,96091.00
2023-05-23T04:45:34.532Z,96099.00
2023-05-23T04:48:21.817Z,96087.50
2023-05-23T04:50:51.169Z,96099.97
2023-05-23T04:53:18.028Z,96092.94
2023-05-23T04:55:45.785Z,96096.47
2023-05-23T04:58:16.233Z,96100.94
2023-05-23T05:00:43.495Z,96108.91
2023-05-23T05:03:12.032Z,96101.19
2023-05-23T05:05:42.661Z,96116.81
2023-05-23T05:08:09.251Z,96107.97
2023-05-23T05:10:36.080Z,96109.91
2023-05-23T05:13:02.764Z,96112.47
2023-05-23T05:15:37.539Z,96110.97
2023-05-23T05:18:04.427Z,96110.03
2023-05-23T05:20:31.076Z,96122.34
2023-05-23T05:22:58.305Z,96119.94
2023-05-23T05:25:25.152Z,96124.06
2023-05-23T05:27:52.595Z,96131.72
2023-05-23T05:30:20.727Z,96136.84
2023-05-23T05:32:52.174Z,96128.72
2023-05-23T05:35:18.855Z,96134.78
2023-05-23T05:37:46.653Z,96135.63
2023-05-23T05:40:13.554Z,96136.47
2023-05-23T05:42:42.694Z,96141.78
2023-05-23T05:45:11.511Z,96143.50
2023-05-23T05:47:39.505Z,96143.63
2023-05-23T05:50:08.413Z,96147.28
2023-05-23T05:52:39.769Z,96149.06
2023-05-23T05:55:07.915Z,96143.84
2023-05-23T05:57:35.460Z,96159.00
2023-05-23T06:00:08.846Z,96161.75
2023-05-23T06:02:51.345Z,96154.75
2023-05-23T06:05:28.924Z,96152.19
2023-05-23T06:07:55.795Z,96157.59
2023-05-23T06:10:22.396Z,96165.59
2023-05-23T06:12:50.396Z,96164.66
2023-05-23T06:15:17.703Z,96156.16
2023-05-23T06:17:45.340Z,96164.75
2023-05-23T06:20:12.434Z,96158.81
2023-05-23T06:22:42.670Z,96167.41
2023-05-23T06:25:09.521Z,96170.19
2023-05-23T06:27:36.909Z,96172.97
2023-05-23T06:30:07.019Z,96172.13
2023-05-23T06:32:33.828Z,96174.91
2023-05-23T06:35:00.605Z,96175.88
2023-05-23T06:37:27.272Z,96171.88
2023-05-23T06:39:53.914Z,96179.50
2023-05-23T06:42:20.571Z,96184.81
2023-05-23T06:45:04.834Z,96184.81
2023-05-23T06:47:32.505Z,96189.31
2023-05-23T06:49:59.160Z,96197.31
2023-05-23T06:52:25.771Z,96198.28
2023-05-23T06:54:52.524Z,96202.75
2023-05-23T06:57:20.304Z,96201.91
2023-05-23T06:59:47.319Z,96200.94
2023-05-23T07:02:15.023Z,96201.69
2023-05-23T07:04:41.643Z,96194.91
2023-05-23T07:07:15.792Z,96208.69
2023-05-23T07:09:43.746Z,96205.09
2023-05-23T07:12:16.651Z,96206.75
2023-05-23T07:14:46.236Z,96206.75
2023-05-23T07:17:13.851Z,96204.22
2023-05-23T07:19:41.105Z,96204.00
2023-05-23T07:22:07.702Z,96207.59
2023-05-23T07:24:38.009Z,96209.44
2023-05-23T07:27:06.546Z,96208.38
2023-05-23T07:29:34.361Z,96204.94
2023-05-23T07:32:01.284Z,96203.88
2023-05-23T07:34:29.212Z,96201.22
2023-05-23T07:36:59.335Z,96193.22
2023-05-23T07:39:30.990Z,96186.06
2023-05-23T07:41:59.936Z,96194.06
2023-05-23T07:44:26.833Z,96197.56
2023-05-23T07:46:54.190Z,96197.56
2023-05-23T07:49:21.561Z,96196.72
2023-05-23T07:51:48.289Z,96196.63
2023-05-23T07:54:16.474Z,96198.34
2023-05-23T07:56:45.153Z,96196.63
2023-05-23T07:59:13.247Z,96205.47
2023-05-23T08:01:40.672Z,96199.22
2023-05-23T08:04:07.566Z,96212.53
2023-05-23T08:06:45.797Z,96213.38
2023-05-23T08:09:20.044Z,96206.22
2023-05-23T08:11:51.094Z,96207.06
2023-05-23T08:14:18.375Z,96210.59
2023-05-23T08:16:53.605Z,96196.72
2023-05-23T08:19:24.133Z,96200.78
2023-05-23T08:21:53.131Z,96205.25
2023-05-23T08:24:22.780Z,96206.94
2023-05-23T08:26:50.442Z,96215.78
2023-05-23T08:29:17.493Z,96215.78
2023-05-23T08:31:45.354Z,96219.31
2023-05-23T08:34:12.508Z,96221.00
2023-05-23T08:36:40.376Z,96218.34
2023-05-23T08:39:11.773Z,96227.19
2023-05-23T08:41:47.416Z,96228.03
2023-05-23T08:44:14.323Z,96226.22
2023-05-23T08:46:49.864Z,96234.22
2023-05-23T08:49:40.987Z,96227.06
2023-05-23T08:52:10.297Z,96230.47
2023-05-23T08:54:41.051Z,96239.44
2023-05-23T08:57:07.887Z,96234.09
2023-05-23T08:59:41.131Z,96230.47
2023-05-23T09:02:12.443Z,96233.25
2023-05-23T09:04:39.304Z,96235.78
2023-05-23T09:07:12.891Z,96241.00
2023-05-23T09:09:39.616Z,96243.78
2023-05-23T09:12:10.233Z,96245.50
2023-05-23T09:14:37.339Z,96246.34
2023-05-23T09:17:07.373Z,96253.38
2023-05-23T09:19:34.202Z,96253.38
2023-05-23T09:22:14.194Z,96247.06
2023-05-23T09:24:57.416Z,96255.91
2023-05-23T09:27:24.593Z,96251.44
2023-05-23T09:29:51.676Z,96243.47
2023-05-23T09:32:21.247Z,96244.66
2023-05-23T09:35:00.943Z,96254.97
2023-05-23T09:37:31.387Z,96258.47
2023-05-23T09:40:03.982Z,96264.63
2023-05-23T09:42:34.259Z,96255.78
2023-05-23T09:45:04.096Z,96252.19
2023-05-23T09:47:31.831Z,96258.34
2023-05-23T09:49:58.861Z,96243.31
2023-05-23T09:52:26.315Z,96253.88
2023-05-23T09:54:54.254Z,96244.19
2023-05-23T09:57:23.138Z,96252.91
2023-05-23T09:59:54.756Z,96248.53
2023-05-23T10:02:59.507Z,96244.06
2023-05-23T10:05:43.791Z,96246.75
2023-05-23T10:08:19.227Z,96247.47
2023-05-23T10:10:58.035Z,96239.47
2023-05-23T10:13:26.834Z,96245.66
2023-05-23T10:16:03.381Z,96235.31
2023-05-23T10:18:30.556Z,96238.50
2023-05-23T10:21:00.838Z,96234.25
2023-05-23T10:23:28.769Z,96241.16
2023-05-23T10:25:55.622Z,96242.88
2023-05-23T10:28:22.346Z,96245.53
2023-05-23T10:30:49.131Z,96244.66
2023-05-23T10:33:17.017Z,96248.22
2023-05-23T10:36:08.591Z,96237.03
2023-05-23T10:38:46.792Z,96247.22
2023-05-23T10:41:27.541Z,96241.06
2023-05-23T10:44:11.696Z,96239.22
2023-05-23T10:47:05.036Z,96231.13
2023-05-23T10:49:41.846Z,96229.66
2023-05-23T10:52:10.392Z,96229.28
2023-05-23T10:54:43.110Z,96223.13
2023-05-23T10:57:12.108Z,96218.63
2023-05-23T10:59:39.269Z,96209.81
2023-05-23T11:02:13.451Z,96210.63
2023-05-23T11:04:40.617Z,96207.97
2023-05-23T11:07:30.922Z,96214.16
2023-05-23T11:10:16.710Z,96221.19
2023-05-23T11:12:44.805Z,96222.91
2023-05-23T11:15:17.199Z,96219.38
2023-05-23T11:17:54.679Z,96229.06
2023-05-23T11:20:24.420Z,96227.25
2023-05-23T11:23:07.501Z,96226.41
2023-05-23T11:25:43.021Z,96222.75
2023-05-23T11:28:10.918Z,96220.97
2023-05-23T11:30:38.272Z,96212.97
2023-05-23T11:33:09.184Z,96209.44
2023-05-23T11:35:36.452Z,96212.09
2023-05-23T11:38:04.877Z,96205.09
2023-05-23T11:40:36.785Z,96204.34
2023-05-23T11:43:05.923Z,96199.88
2023-05-23T11:45:33.917Z,96203.38
2023-05-23T11:48:11.726Z,96205.81
2023-05-23T11:50:52.982Z,96215.38
2023-05-23T11:53:22.179Z,96212.00
2023-05-23T11:55:53.682Z,96209.31
2023-05-23T11:58:26.724Z,96210.16
2023-05-23T12:00:59.086Z,96209.22
2023-05-23T12:03:25.889Z,96216.22
2023-05-23T12:05:52.697Z,96210.88
2023-05-23T12:08:19.463Z,96211.75
2023-05-23T12:11:04.152Z,96216.22
2023-05-23T12:13:30.882Z,96201.22
2023-05-23T12:15:59.726Z,96206.44
2023-05-23T12:18:31.546Z,96204.59
2023-05-23T12:21:03.128Z,96214.28
2023-05-23T12:23:31.337Z,96210.78
2023-05-23T12:25:59.900Z,96206.28
2023-05-23T12:28:45.714Z,96208.97
2023-05-23T12:31:19.546Z,96208.84
2023-05-23T12:33:51.130Z,96208.00
2023-05-23T12:36:26.202Z,96214.28
2023-05-23T12:38:53.459Z,96208.84
2023-05-23T12:41:20.841Z,96202.56
2023-05-23T12:43:52.411Z,96208.97
2023-05-23T12:46:20.462Z,96211.41
2023-05-23T12:48:47.525Z,96212.38
2023-05-23T12:51:15.060Z,96210.66
2023-05-23T12:53:41.720Z,96213.22
2023-05-23T12:56:08.541Z,96215.16
2023-05-23T12:58:35.305Z,96208.13
2023-05-23T13:01:02.655Z,96216.72
2023-05-23T13:03:33.233Z,96220.25
2023-05-23T13:06:00.283Z,96223.78
2023-05-23T13:08:29.780Z,96223.78
2023-05-23T13:10:57.128Z,96217.56
2023-05-23T13:13:24.094Z,96227.28
2023-05-23T13:15:51.637Z,96231.78
2023-05-23T13:18:18.837Z,96229.09
2023-05-23T13:20:46.494Z,96224.72
2023-05-23T13:23:13.474Z,96213.44
2023-05-23T13:25:40.321Z,96214.06
2023-05-23T13:28:07.085Z,96204.25
2023-05-23T13:30:34.395Z,96211.50
2023-05-23T13:33:01.158Z,96220.13
2023-05-23T13:35:27.854Z,96225.09
2023-05-23T13:37:54.491Z,96223.41
2023-05-23T13:40:21.963Z,96228.03
2023-05-23T13:42:51.065Z,96219.91
2023-05-23T13:45:18.908Z,96222.34
2023-05-23T13:47:46.472Z,96225.72
2023-05-23T13:50:13.198Z,96221.38
2023-05-23T13:52:42.939Z,96236.91
2023-05-23T13:55:11.004Z,96224.41
2023-05-23T13:57:37.739Z,96214.47
2023-05-23T14:00:05.461Z,96215.31
2023-05-23T14:02:34.548Z,96220.53
2023-05-23T14:05:01.503Z,96215.19
2023-05-23T14:07:28.234Z,96211.91
2023-05-23T14:09:54.873Z,96210.69
2023-05-23T14:12:21.501Z,96217.75
2023-05-23T14:14:48.313Z,96213.25
2023-05-23T14:17:18.186Z,96199.31
2023-05-23T14:19:45.753Z,96201.66
2023-05-23T14:22:12.530Z,96202.59
2023-05-23T14:24:39.192Z,96185.25
2023-05-23T14:27:08.067Z,96197.38
2023-05-23T14:29:36.285Z,96192.41
2023-05-23T14:32:04.137Z,96200.03
2023-05-23T14:34:30.911Z,96205.38
2023-05-23T14:36:57.573Z,96196.41
2023-05-23T14:39:25.581Z,96200.78
2023-05-23T14:41:52.475Z,96202.59
2023-05-23T14:44:19.490Z,96199.06
2023-05-23T14:46:50.041Z,96193.75
2023-05-23T14:49:17.550Z,96197.25
2023-05-23T14:51:50.223Z,96197.16
2023-05-23T14:54:17.465Z,96199.84
2023-05-23T14:56:44.075Z,96193.66
2023-05-23T14:59:11.065Z,96194.59
2023-05-23T15:01:40.080Z,96200.03
2023-05-23T15:04:09.123Z,96203.47
2023-05-23T15:06:37.050Z,96214.13
2023-05-23T15:09:04.231Z,96221.19
2023-05-23T15:11:32.245Z,96230.13
2023-05-23T15:13:59.604Z,96217.66
2023-05-23T15:16:26.583Z,96218.50
2023-05-23T15:18:53.458Z,96215.00
2023-05-23T15:21:20.284Z,96226.50
2023-05-23T15:23:46.956Z,96224.69
2023-05-23T15:26:13.652Z,96225.53
2023-05-23T15:28:40.300Z,96231.00
2023-05-23T15:31:07.031Z,96230.03
2023-05-23T15:33:33.715Z,96234.50
2023-05-23T15:36:01.198Z,96233.66
2023-05-23T15:38:27.912Z,96233.66
2023-05-23T15:40:56.394Z,96238.13
2023-05-23T15:43:24.864Z,96244.34
2023-05-23T15:45:52.031Z,96238.13
2023-05-23T15:48:18.840Z,96239.00
2023-05-23T15:50:45.992Z,96240.81
2023-05-23T15:53:12.756Z,96242.72
2023-05-23T15:55:42.059Z,96242.13
2023-05-23T15:58:10.104Z,96243.91
2023-05-23T16:00:36.717Z,96253.03
2023-05-23T16:03:03.470Z,96243.06
2023-05-23T16:05:30.318Z,96239.19
2023-05-23T16:07:57.091Z,96231.78
2023-05-23T16:10:24.661Z,96240.94
2023-05-23T16:12:51.579Z,96253.53
2023-05-23T16:15:18.447Z,96242.41
2023-05-23T16:17:45.378Z,96253.19
2023-05-23T16:20:12.371Z,96247.59
2023-05-23T16:22:39.154Z,96244.41
2023-05-23T16:25:07.830Z,96235.19
2023-05-23T16:27:34.579Z,96250.94
2023-05-23T16:30:01.569Z,96263.31
2023-05-23T16:32:28.902Z,96255.31
2023-05-23T16:34:57.811Z,96262.94
2023-05-23T16:37:24.522Z,96264.53
2023-05-23T16:39:51.198Z,96266.13
2023-05-23T16:42:17.931Z,96267.72
2023-05-23T16:44:45.170Z,96273.88
2023-05-23T16:47:11.940Z,96269.28
2023-05-23T16:49:38.589Z,96274.59
2023-05-23T16:52:05.458Z,96268.53
2023-05-23T16:54:32.089Z,96276.22
2023-05-23T16:57:01.567Z,96280.66
2023-05-23T16:59:29.569Z,96274.50
2023-05-23T17:01:56.413Z,96286.03
2023-05-23T17:04:23.112Z,96295.28
2023-05-23T17:06:50.125Z,96295.75
2023-05-23T17:09:18.067Z,96297.13
2023-05-23T17:11:44.923Z,96305.75
2023-05-23T17:14:11.859Z,96299.09
2023-05-23T17:16:38.768Z,96304.06
2023-05-23T17:19:05.650Z,96307.50
2023-05-23T17:21:32.873Z,96310.78
2023-05-23T17:23:59.624Z,96310.56
2023-05-23T17:26:27.224Z,96313.09
2023-05-23T17:28:53.875Z,96315.50
2023-05-23T17:31:20.971Z,96317.22
2023-05-23T17:33:47.683Z,96310.91
2023-05-23T17:36:14.343Z,96313.47
2023-05-23T17:38:41.603Z,96315.19
2023-05-23T17:41:08.288Z,96320.38
2023-05-23T17:43:34.905Z,96309.59
2023-05-23T17:46:01.574Z,96308.63
2023-05-23T17:48:45.244Z,96321.00
2023-05-23T17:51:13.545Z,96322.69
2023-05-23T17:53:41.554Z,96326.94
2023-05-23T17:56:09.239Z,96332.06
2023-05-23T17:58:37.354Z,96326.72
2023-05-23T18:01:04.726Z,96330.13
2023-05-23T18:03:31.425Z,96342.47
2023-05-23T18:05:58.198Z,96338.84
2023-05-23T18:08:25.964Z,96341.53
2023-05-23T18:10:52.640Z,96341.25
2023-05-23T18:13:19.234Z,96342.13
2023-05-23T18:15:45.959Z,96334.34
2023-05-23T18:18:12.836Z,96347.31
2023-05-23T18:20:39.868Z,96342.00
2023-05-23T18:23:07.432Z,96349.88
2023-05-23T18:25:34.367Z,96343.44
2023-05-23T18:28:01.770Z,96340.31
2023-05-23T18:30:29.083Z,96351.34
2023-05-23T18:32:56.076Z,96355.72
2023-05-23T18:35:22.977Z,96361.91
2023-05-23T18:37:50.835Z,96362.75
2023-05-23T18:40:17.518Z,96356.06
2023-05-23T18:42:44.362Z,96366.16
2023-05-23T18:45:11.060Z,96367.03
2023-05-23T18:47:37.789Z,96367.84
2023-05-23T18:50:04.704Z,96369.53
2023-05-23T18:52:33.494Z,96374.88
2023-05-23T18:55:00.199Z,96365.19
2023-05-23T18:57:26.885Z,96375.88
2023-05-23T18:59:54.387Z,96377.56
2023-05-23T19:02:21.587Z,96379.38
2023-05-23T19:04:48.318Z,96379.38
2023-05-23T19:07:15.295Z,96390.91
2023-05-23T19:09:41.974Z,96399.78
2023-05-23T19:12:08.689Z,96403.19
2023-05-23T19:14:35.453Z,96404.97
2023-05-23T19:17:05.645Z,96406.81
2023-05-23T19:19:36.586Z,96412.16
2023-05-23T19:22:03.440Z,96412.03
2023-05-23T19:24:30.133Z,96405.84
2023-05-23T19:26:57.096Z,96409.25
2023-05-23T19:29:23.725Z,96409.25
2023-05-23T19:31:50.453Z,96417.25
2023-05-23T19:34:17.174Z,96415.31
2023-05-23T19:36:44.118Z,96432.19
2023-05-23T19:39:12.450Z,96432.19
2023-05-23T19:41:40.729Z,96426.94
2023-05-23T19:44:07.658Z,96437.41
2023-05-23T19:49:00.972Z,96429.63
2023-05-23T19:51:27.633Z,96441.91
2023-05-23T19:53:54.778Z,96446.25
2023-05-23T19:56:25.807Z,96447.25
2023-05-23T19:58:52.425Z,96433.03
2023-05-23T20:01:19.118Z,96451.59
2023-05-23T20:03:45.922Z,96441.91
2023-05-23T20:06:12.625Z,96449.78
2023-05-23T20:08:39.256Z,96448.94
2023-05-23T20:11:05.939Z,96422.56
2023-05-23T20:13:32.605Z,96455.97
2023-05-23T20:15:59.330Z,96456.81
2023-05-23T20:18:26.104Z,96458.50
2023-05-23T20:20:53.162Z,96458.50
2023-05-23T20:23:19.844Z,96462.06
2023-05-23T20:25:46.504Z,96458.41
2023-05-23T20:28:13.148Z,96459.38
2023-05-23T20:30:39.778Z,96463.84
2023-05-23T20:33:06.550Z,96463.84
2023-05-23T20:35:33.210Z,96465.56
2023-05-23T20:37:59.957Z,96470.91
2023-05-23T20:40:29.755Z,96475.25
2023-05-23T20:43:00.585Z,96464.84
2023-05-23T20:45:27.680Z,96467.41
2023-05-23T20:47:55.303Z,96468.13
2023-05-23T20:50:22.584Z,96469.81
2023-05-23T20:52:49.330Z,96472.47
2023-05-23T20:55:16.051Z,96458.66
2023-05-23T20:57:43.099Z,96466.19
2023-05-23T21:00:11.700Z,96453.31
2023-05-23T21:02:42.061Z,96470.53
2023-05-23T21:05:10.125Z,96470.53
2023-05-23T21:07:37.027Z,96474.09
2023-05-23T21:10:04.076Z,96476.63
2023-05-23T21:12:30.954Z,96467.59
2023-05-23T21:14:58.225Z,96460.31
2023-05-23T21:17:25.529Z,96475.06
2023-05-23T21:19:52.328Z,96459.41
2023-05-23T21:22:18.924Z,96466.78
2023-05-23T21:24:46.103Z,96465.19
2023-05-23T21:27:12.875Z,96468.94
2023-05-23T21:29:39.739Z,96470.03
2023-05-23T21:32:06.655Z,96472.81
2023-05-23T21:34:33.439Z,96480.94
2023-05-23T21:37:00.088Z,96465.28
2023-05-23T21:39:36.082Z,96472.31
2023-05-23T21:42:09.964Z,96471.56
2023-05-23T21:44:37.877Z,96473.38
2023-05-23T21:47:05.611Z,96470.09
2023-05-23T21:49:33.822Z,96483.53
2023-05-23T21:52:04.290Z,96491.66
2023-05-23T21:54:31.110Z,96499.75
2023-05-23T21:56:57.769Z,96492.84
2023-05-23T21:59:24.503Z,96490.38
2023-05-23T22:01:51.587Z,96505.31
2023-05-23T22:04:21.236Z,96497.66
2023-05-23T22:06:47.911Z,96507.34
2023-05-23T22:09:15.281Z,96509.16
2023-05-23T22:11:42.238Z,96510.16
2023-05-23T22:14:08.919Z,96503.19
2023-05-23T22:16:41.283Z,96502.25
2023-05-23T22:19:10.326Z,96504.28
2023-05-23T22:21:37.449Z,96506.75
2023-05-23T22:24:04.763Z,96510.34
2023-05-23T22:26:32.221Z,96502.47
2023-05-23T22:28:59.040Z,96504.28
2023-05-23T22:31:26.514Z,96512.28
2023-05-23T22:33:53.447Z,96507.91
2023-05-23T22:36:21.881Z,96506.22
2023-05-23T22:38:48.635Z,96492.03
2023-05-23T22:41:15.456Z,96486.28
2023-05-23T22:43:42.210Z,96494.81
2023-05-23T22:46:09.000Z,96485.97
2023-05-23T22:48:35.754Z,96477.34
2023-05-23T22:51:02.944Z,96486.91
2023-05-23T22:53:29.915Z,96484.59
2023-05-23T22:55:56.688Z,96488.75
2023-05-23T22:58:23.408Z,96480.75
2023-05-23T23:00:50.223Z,96479.03
2023-05-23T23:03:17.136Z,96471.28
2023-05-23T23:05:44.342Z,96474.66
2023-05-23T23:08:12.012Z,96467.13
2023-05-23T23:10:39.970Z,96473.19
2023-05-23T23:13:07.015Z,96470.75
2023-05-23T23:15:33.884Z,96475.72
2023-05-23T23:18:01.129Z,96468.59
2023-05-23T23:20:28.040Z,96472.22
2023-05-23T23:22:54.718Z,96471.38
2023-05-23T23:25:21.945Z,96466.03
2023-05-23T23:27:48.727Z,96469.66
2023-05-23T23:30:15.550Z,96463.72
2023-05-23T23:32:42.311Z,96466.16
2023-05-23T23:35:09.085Z,96467.13
2023-05-23T23:37:35.909Z,96462.63
2023-05-23T23:40:02.547Z,96464.47
2023-05-23T23:42:29.182Z,96466.16
2023-05-23T23:44:56.382Z,96464.47
2023-05-23T23:47:23.143Z,96469.78
2023-05-23T23:49:49.730Z,96459.56
2023-05-23T23:52:16.441Z,96467.22
2023-05-23T23:54:43.248Z,96462.84
2023-05-23T23:57:13.596Z,96464.66
2023-05-23T23:59:41.460Z,96460.19
